Time;durP1;ratioP1;P1;durP2;ratioP2;P2;SDS_P1;SDS_P2;PMS_P1;PMS_P2;Temp;Humidity;BMP_temperature;BMP_pressure;BME280_temperature;BME280_humidity;BME280_pressure;Samples;Min_cycle;Max_cycle;Signal;HPM_P1;HPM_P2
2021/10/30 00:00:14;;;;;;;36.20;21.08;;;;;;;5.72;nan;101260.75;5063255;28;20067;-76
2021/10/30 00:02:41;;;;;;;34.95;21.13;;;;;;;5.70;nan;101268.13;5062543;28;20058;-76
2021/10/30 00:05:09;;;;;;;33.25;18.88;;;;;;;5.71;nan;101267.09;5068147;28;20085;-76
2021/10/30 00:07:35;;;;;;;31.10;19.77;;;;;;;5.70;nan;101265.44;5083631;28;20146;-76
2021/10/30 00:10:01;;;;;;;34.17;19.70;;;;;;;5.70;nan;101256.66;5068648;28;20542;-76
2021/10/30 00:12:26;;;;;;;32.38;19.33;;;;;;;5.68;nan;101262.19;5064795;28;20028;-76
2021/10/30 00:14:52;;;;;;;33.28;18.85;;;;;;;5.68;nan;101261.38;5064392;28;20028;-76
2021/10/30 00:17:18;;;;;;;32.83;20.38;;;;;;;5.70;nan;101257.47;5065384;28;20032;-76
2021/10/30 00:19:43;;;;;;;33.17;20.15;;;;;;;5.73;nan;101251.75;5068230;28;20570;-77
2021/10/30 00:22:09;;;;;;;30.13;19.73;;;;;;;5.74;nan;101258.72;5068234;28;20051;-76
2021/10/30 00:24:35;;;;;;;32.13;18.92;;;;;;;5.79;nan;101246.66;5062235;28;20648;-76
2021/10/30 00:27:06;;;;;;;34.78;20.08;;;;;;;5.80;nan;101251.78;5085054;28;20016;-76
2021/10/30 00:29:31;;;;;;;32.30;19.65;;;;;;;5.82;nan;101263.03;5084581;28;20056;-76
2021/10/30 00:31:57;;;;;;;35.83;19.65;;;;;;;5.82;nan;101275.50;5083003;28;20062;-76
2021/10/30 00:34:23;;;;;;;35.03;19.98;;;;;;;5.86;nan;101274.06;5064008;28;20044;-76
2021/10/30 00:36:52;;;;;;;32.17;18.35;;;;;;;5.89;nan;101276.31;5085236;28;20107;-76
2021/10/30 00:39:18;;;;;;;30.30;18.05;;;;;;;5.91;nan;101283.09;5065628;28;20032;-76
2021/10/30 00:41:48;;;;;;;34.80;18.60;;;;;;;5.80;nan;101283.69;5020137;28;1225176;-76
2021/10/30 00:44:14;;;;;;;31.40;18.42;;;;;;;5.72;nan;101278.53;5066801;28;20021;-76
2021/10/30 00:46:41;;;;;;;32.38;19.23;;;;;;;5.69;nan;101285.09;5065112;28;20031;-76
2021/10/30 00:49:09;;;;;;;36.97;19.73;;;;;;;5.63;nan;101285.09;5063379;28;20052;-76
2021/10/30 00:51:36;;;;;;;30.83;18.90;;;;;;;5.61;nan;101281.81;5084435;28;20107;-76
2021/10/30 00:54:03;;;;;;;33.97;19.52;;;;;;;5.63;nan;101277.94;5081754;28;20035;-76
2021/10/30 00:56:31;;;;;;;34.13;19.08;;;;;;;5.62;nan;101275.47;5079770;28;20029;-77
2021/10/30 00:59:00;;;;;;;32.22;18.63;;;;;;;5.65;nan;101272.41;5063375;28;20028;-76
2021/10/30 01:01:26;;;;;;;36.42;19.65;;;;;;;5.67;nan;101279.16;5062088;28;20032;-76
2021/10/30 01:03:52;;;;;;;39.00;20.10;;;;;;;5.68;nan;101274.66;5082302;28;20395;-76
2021/10/30 01:06:19;;;;;;;30.50;17.67;;;;;;;5.69;nan;101277.13;5063801;28;20035;-76
2021/10/30 01:08:45;;;;;;;33.90;19.13;;;;;;;5.72;nan;101262.59;5084575;28;20024;-76
2021/10/30 01:11:12;;;;;;;30.00;19.30;;;;;;;5.72;nan;101262.59;5085976;28;20024;-76
2021/10/30 01:13:40;;;;;;;31.40;19.40;;;;;;;5.67;nan;101265.88;5085831;28;20029;-76
2021/10/30 01:16:05;;;;;;;33.78;18.52;;;;;;;5.72;nan;101259.94;5079595;28;20052;-76
2021/10/30 01:18:30;;;;;;;30.20;18.48;;;;;;;5.69;nan;101257.69;5060476;28;20066;-76
2021/10/30 01:20:56;;;;;;;33.85;18.98;;;;;;;5.67;nan;101257.06;5079049;28;20653;-76
2021/10/30 01:23:22;;;;;;;29.48;18.30;;;;;;;5.66;nan;101248.28;5062318;28;20038;-76
2021/10/30 01:25:49;;;;;;;34.22;19.40;;;;;;;5.63;nan;101248.69;5085434;28;20062;-76
2021/10/30 01:28:15;;;;;;;31.25;18.52;;;;;;;5.62;nan;101249.72;5065526;28;20059;-76
2021/10/30 01:30:41;;;;;;;33.78;19.30;;;;;;;5.58;nan;101255.66;5066399;28;20024;-76
2021/10/30 01:33:08;;;;;;;34.22;18.38;;;;;;;5.54;nan;101263.19;5080238;28;20070;-76
2021/10/30 01:35:40;;;;;;;32.15;19.58;;;;;;;5.50;nan;101266.44;5061541;28;20035;-76
2021/10/30 01:38:09;;;;;;;31.08;18.73;;;;;;;5.45;nan;101257.25;5066877;28;20468;-76
2021/10/30 01:40:40;;;;;;;31.60;18.70;;;;;;;5.44;nan;101262.78;5066916;28;20032;-76
2021/10/30 01:43:06;;;;;;;32.25;19.38;;;;;;;5.47;nan;101267.69;5085564;28;20030;-76
2021/10/30 01:45:32;;;;;;;30.35;18.50;;;;;;;5.45;nan;101262.56;5081219;28;20103;-76
2021/10/30 01:47:58;;;;;;;32.30;18.88;;;;;;;5.50;nan;101267.28;5069002;28;20081;-76
2021/10/30 01:50:25;;;;;;;32.03;18.13;;;;;;;5.52;nan;101265.22;5086039;28;20024;-76
2021/10/30 01:52:51;;;;;;;28.35;17.52;;;;;;;5.55;nan;101261.34;5060856;28;20024;-76
2021/10/30 01:55:18;;;;;;;33.05;18.00;;;;;;;5.54;nan;101265.84;5066418;28;20074;-76
2021/10/30 01:57:45;;;;;;;35.25;19.38;;;;;;;5.57;nan;101269.97;5060414;28;20031;-76
2021/10/30 02:00:11;;;;;;;34.83;19.67;;;;;;;5.59;nan;101266.06;5065704;28;20036;-76
2021/10/30 02:02:37;;;;;;;32.53;18.90;;;;;;;5.65;nan;101259.94;5062949;28;20093;-77
2021/10/30 02:05:03;;;;;;;31.20;18.10;;;;;;;5.66;nan;101258.91;5069222;28;20024;-76
2021/10/30 02:07:28;;;;;;;31.80;19.17;;;;;;;5.69;nan;101261.16;5081993;28;20103;-76
2021/10/30 02:09:54;;;;;;;34.15;20.17;;;;;;;5.71;nan;101253.78;5086542;28;20115;-77
2021/10/30 02:12:20;;;;;;;33.53;19.45;;;;;;;5.74;nan;101263.19;5069266;28;20016;-76
2021/10/30 02:14:45;;;;;;;30.92;18.48;;;;;;;5.74;nan;101263.19;5071701;28;20115;-77
2021/10/30 02:17:11;;;;;;;30.27;17.42;;;;;;;5.69;nan;101261.16;5064492;28;20043;-77
2021/10/30 02:19:37;;;;;;;39.88;20.35;;;;;;;5.72;nan;101263.41;5088235;28;20527;-77
2021/10/30 02:22:03;;;;;;;32.20;19.00;;;;;;;5.76;nan;101253.22;5067666;28;20078;-77
2021/10/30 02:24:29;;;;;;;34.03;19.27;;;;;;;5.81;nan;101255.25;5068569;28;20028;-76
2021/10/30 02:26:54;;;;;;;28.05;19.05;;;;;;;5.81;nan;101258.72;5070433;28;20022;-76
2021/10/30 02:29:20;;;;;;;31.48;19.02;;;;;;;5.79;nan;101258.13;5088590;28;20058;-76
2021/10/30 02:31:45;;;;;;;32.40;18.98;;;;;;;5.79;nan;101255.47;5066174;28;20036;-76
2021/10/30 02:34:11;;;;;;;35.75;20.83;;;;;;;5.78;nan;101248.50;5091106;28;20027;-76
2021/10/30 02:36:36;;;;;;;35.95;19.02;;;;;;;5.72;nan;101254.63;5069756;28;20516;-76
2021/10/30 02:39:02;;;;;;;31.02;19.27;;;;;;;5.80;nan;101250.94;5072223;28;20031;-76
2021/10/30 02:41:28;;;;;;;30.73;17.67;;;;;;;5.80;nan;101250.94;5068049;28;20042;-76
2021/10/30 02:43:54;;;;;;;29.00;19.48;;;;;;;5.79;nan;101251.97;5065756;28;20024;-76
2021/10/30 02:46:19;;;;;;;32.35;19.02;;;;;;;5.80;nan;101245.63;5065957;28;20025;-76
2021/10/30 02:48:45;;;;;;;29.45;17.98;;;;;;;5.80;nan;101248.28;5083720;28;20031;-77
2021/10/30 02:51:10;;;;;;;31.55;19.02;;;;;;;5.84;nan;101250.34;5068299;28;20025;-76
2021/10/30 02:53:36;;;;;;;33.05;18.75;;;;;;;5.83;nan;101251.34;5087996;28;20111;-77
2021/10/30 02:56:01;;;;;;;35.90;18.23;;;;;;;5.86;nan;101256.25;5071844;28;20028;-76
2021/10/30 02:58:27;;;;;;;32.10;18.55;;;;;;;5.78;nan;101258.31;5064713;28;20032;-77
2021/10/30 03:00:52;;;;;;;30.85;19.30;;;;;;;5.81;nan;101264.03;5088063;28;20119;-77
2021/10/30 03:03:18;;;;;;;32.42;19.75;;;;;;;5.86;nan;101255.44;5066116;28;20389;-77
2021/10/30 03:05:43;;;;;;;34.53;19.80;;;;;;;5.88;nan;101253.41;5083398;28;20040;-77
2021/10/30 03:08:09;;;;;;;31.77;19.25;;;;;;;5.87;nan;101257.06;5069214;28;20024;-77
2021/10/30 03:10:34;;;;;;;35.97;20.83;;;;;;;5.85;nan;101261.78;5072036;28;20506;-77
2021/10/30 03:13:00;;;;;;;31.48;18.73;;;;;;;5.80;nan;101261.59;5068832;28;20137;-77
2021/10/30 03:15:26;;;;;;;41.28;19.58;;;;;;;5.78;nan;101268.97;5088553;28;20660;-77
2021/10/30 03:17:52;;;;;;;31.95;18.85;;;;;;;5.73;nan;101254.41;5069956;28;20027;-77
2021/10/30 03:20:18;;;;;;;32.40;19.13;;;;;;;5.75;nan;101262.22;5067189;28;20031;-77
2021/10/30 03:22:43;;;;;;;30.98;18.10;;;;;;;5.72;nan;101260.75;5083818;28;20075;-77
2021/10/30 03:25:09;;;;;;;32.72;18.95;;;;;;;5.70;nan;101260.13;5065127;28;20107;-77
2021/10/30 03:27:35;;;;;;;30.05;18.20;;;;;;;5.68;nan;101262.19;5069521;28;20032;-76
2021/10/30 03:30:01;;;;;;;30.98;18.77;;;;;;;5.63;nan;101267.31;5082252;28;20876;-76
2021/10/30 03:32:26;;;;;;;32.30;19.05;;;;;;;5.68;nan;101259.53;5063347;28;20021;-77
2021/10/30 03:34:52;;;;;;;30.42;19.38;;;;;;;5.66;nan;101264.22;5086631;28;20028;-77
2021/10/30 03:37:17;;;;;;;32.85;18.75;;;;;;;5.62;nan;101264.84;5068450;28;20478;-77
2021/10/30 03:39:43;;;;;;;32.28;19.13;;;;;;;5.56;nan;101277.09;5065117;28;20028;-77
2021/10/30 03:42:09;;;;;;;32.95;20.02;;;;;;;5.54;nan;101271.16;5069277;28;20031;-77
2021/10/30 03:44:35;;;;;;;34.15;19.52;;;;;;;5.53;nan;101272.19;5063085;28;20035;-77
2021/10/30 03:47:00;;;;;;;32.60;20.35;;;;;;;5.44;nan;101276.06;5068517;28;20023;-77
2021/10/30 03:49:26;;;;;;;32.13;18.65;;;;;;;5.37;nan;101280.53;5088600;28;20390;-77
2021/10/30 03:51:52;;;;;;;34.20;21.35;;;;;;;5.42;nan;101286.06;5067198;28;21564;-77
2021/10/30 03:54:17;;;;;;;34.28;19.27;;;;;;;5.44;nan;101278.72;5088398;28;20478;-77
2021/10/30 03:56:43;;;;;;;32.38;19.00;;;;;;;5.45;nan;101272.38;5067902;28;20110;-77
2021/10/30 03:59:08;;;;;;;33.97;19.90;;;;;;;5.48;nan;101269.31;5066882;28;20024;-77
2021/10/30 04:01:34;;;;;;;30.35;19.80;;;;;;;5.47;nan;101279.13;5084413;28;20042;-77
2021/10/30 04:03:59;;;;;;;32.08;19.58;;;;;;;5.46;nan;101276.66;5082846;28;20099;-76
2021/10/30 04:06:25;;;;;;;34.45;20.77;;;;;;;5.50;nan;101279.75;5084544;28;20162;-77
2021/10/30 04:08:51;;;;;;;31.73;19.98;;;;;;;5.45;nan;101278.50;5084687;28;21047;-76
2021/10/30 04:11:16;;;;;;;32.97;20.20;;;;;;;5.38;nan;101282.97;5085940;28;20114;-77
2021/10/30 04:13:42;;;;;;;35.17;20.92;;;;;;;5.23;nan;101286.84;5066271;28;20025;-77
2021/10/30 04:16:07;;;;;;;31.35;19.48;;;;;;;5.23;nan;101281.53;5085605;28;20466;-77
2021/10/30 04:18:33;;;;;;;33.13;19.88;;;;;;;5.27;nan;101269.47;5084899;28;20020;-77
2021/10/30 04:20:59;;;;;;;34.33;20.13;;;;;;;5.31;nan;101268.88;5078110;28;20059;-77
2021/10/30 04:23:24;;;;;;;32.25;20.52;;;;;;;5.28;nan;101263.13;5063753;28;20031;-77
2021/10/30 04:25:50;;;;;;;30.50;18.90;;;;;;;5.25;nan;101264.38;5066597;28;20035;-77
2021/10/30 04:28:15;;;;;;;34.95;19.42;;;;;;;5.26;nan;101260.69;5063430;28;20028;-77
2021/10/30 04:30:41;;;;;;;36.97;19.58;;;;;;;5.27;nan;101261.50;5083338;28;20035;-77
2021/10/30 04:33:12;;;;;;;32.80;19.40;;;;;;;5.28;nan;101257.81;5083350;28;20402;-76
2021/10/30 04:35:40;;;;;;;33.05;19.85;;;;;;;5.33;nan;101268.66;5085966;28;20038;-77
2021/10/30 04:38:06;;;;;;;31.10;20.05;;;;;;;5.40;nan;101245.59;5070730;28;20604;-77
2021/10/30 04:40:31;;;;;;;35.13;18.95;;;;;;;5.43;nan;101251.31;5066660;28;20077;-76
2021/10/30 04:42:57;;;;;;;31.35;19.58;;;;;;;5.44;nan;101254.78;5068693;28;20094;-77
2021/10/30 04:45:22;;;;;;;32.25;18.95;;;;;;;5.41;nan;101255.22;5063384;28;20028;-76
2021/10/30 04:47:48;;;;;;;30.23;19.88;;;;;;;5.40;nan;101256.22;5078080;28;20479;-77
2021/10/30 04:50:13;;;;;;;31.60;18.35;;;;;;;5.36;nan;101261.09;5082842;28;20024;-76
2021/10/30 04:52:39;;;;;;;34.22;19.08;;;;;;;5.36;nan;101258.44;5081211;28;20506;-77
2021/10/30 04:55:06;;;;;;;35.05;19.45;;;;;;;5.40;nan;101253.56;5077344;28;20051;-77
2021/10/30 04:57:31;;;;;;;34.55;20.58;;;;;;;5.40;nan;101257.03;5063552;28;20069;-77
2021/10/30 04:59:56;;;;;;;31.90;18.33;;;;;;;5.38;nan;101263.56;5066917;28;20028;-77
2021/10/30 05:02:22;;;;;;;35.65;19.52;;;;;;;5.40;nan;101266.84;5083116;28;20039;-77
2021/10/30 05:04:48;;;;;;;37.13;19.77;;;;;;;5.41;nan;101265.84;5083322;28;20039;-78
2021/10/30 05:07:14;;;;;;;33.53;19.52;;;;;;;5.39;nan;101255.41;5079106;28;20179;-77
2021/10/30 05:09:39;;;;;;;34.97;20.42;;;;;;;5.36;nan;101249.66;5067384;28;20077;-78
2021/10/30 05:12:06;;;;;;;35.13;19.77;;;;;;;5.38;nan;101252.94;5063702;28;20020;-77
2021/10/30 05:14:31;;;;;;;30.67;18.73;;;;;;;5.40;nan;101251.72;5065288;28;20062;-78
2021/10/30 05:16:57;;;;;;;31.13;18.77;;;;;;;5.41;nan;101247.22;5064712;28;20059;-77
2021/10/30 05:19:22;;;;;;;31.20;19.92;;;;;;;5.37;nan;101259.25;5083254;28;20028;-77
2021/10/30 05:21:48;;;;;;;36.92;20.70;;;;;;;5.33;nan;101258.03;5068027;28;20497;-77
2021/10/30 05:24:13;;;;;;;35.95;19.80;;;;;;;5.35;nan;101248.84;5067622;28;20577;-77
2021/10/30 05:26:39;;;;;;;36.00;20.80;;;;;;;5.36;nan;101239.84;5069346;28;20985;-78
2021/10/30 05:29:04;;;;;;;35.63;19.95;;;;;;;5.36;nan;101241.69;5084338;28;20505;-78
2021/10/30 05:31:30;;;;;;;34.13;19.73;;;;;;;5.33;nan;101244.75;5065233;28;20028;-77
2021/10/30 05:33:55;;;;;;;37.70;20.05;;;;;;;5.36;nan;101234.53;5081522;28;20048;-77
2021/10/30 05:36:25;;;;;;;41.25;19.77;;;;;;;5.34;nan;101247.19;5067434;28;20035;-77
2021/10/30 05:38:53;;;;;;;29.85;19.13;;;;;;;5.32;nan;101243.94;5064058;28;20036;-77
2021/10/30 05:41:19;;;;;;;32.88;18.60;;;;;;;5.31;nan;101234.31;5061829;28;20024;-77
2021/10/30 05:43:45;;;;;;;36.22;20.00;;;;;;;5.35;nan;101243.53;5064909;28;20020;-77
2021/10/30 05:46:11;;;;;;;33.10;19.40;;;;;;;5.36;nan;101241.69;5068032;28;20073;-77
2021/10/30 05:48:37;;;;;;;33.47;19.90;;;;;;;5.37;nan;101251.28;5086104;28;21912;-77
2021/10/30 05:51:05;;;;;;;31.48;18.45;;;;;;;5.38;nan;101242.28;5086723;28;20031;-77
2021/10/30 05:53:30;;;;;;;34.63;19.17;;;;;;;5.40;nan;101240.28;5088413;28;20024;-77
2021/10/30 05:55:56;;;;;;;32.20;18.83;;;;;;;5.38;nan;101234.31;5084618;28;20113;-77
2021/10/30 05:58:22;;;;;;;33.58;19.25;;;;;;;5.36;nan;101244.34;5068595;28;20493;-77
2021/10/30 06:00:48;;;;;;;30.25;17.92;;;;;;;5.36;nan;101233.72;5068464;28;20031;-77
2021/10/30 06:03:13;;;;;;;30.58;17.98;;;;;;;5.43;nan;101234.56;5085373;28;20032;-77
2021/10/30 06:05:39;;;;;;;35.33;19.20;;;;;;;5.45;nan;101237.81;5068854;28;20109;-77
2021/10/30 06:08:04;;;;;;;30.65;19.20;;;;;;;5.46;nan;101240.28;5082872;28;20024;-77
2021/10/30 06:10:31;;;;;;;37.00;19.58;;;;;;;5.46;nan;101242.94;5069440;28;20024;-77
2021/10/30 06:12:56;;;;;;;31.55;19.27;;;;;;;5.50;nan;101250.50;5067097;28;20084;-77
2021/10/30 06:15:22;;;;;;;34.42;18.98;;;;;;;5.54;nan;101257.03;5066339;28;20573;-77
2021/10/30 06:17:47;;;;;;;35.03;20.35;;;;;;;5.62;nan;101255.03;5069514;28;20042;-77
2021/10/30 06:20:13;;;;;;;32.28;19.08;;;;;;;5.65;nan;101257.28;5065797;28;20028;-77
2021/10/30 06:22:42;;;;;;;37.00;20.38;;;;;;;5.73;nan;101254.41;5086806;28;20035;-77
2021/10/30 06:25:12;;;;;;;33.88;18.83;;;;;;;5.70;nan;101261.97;5079550;28;20564;-77
2021/10/30 06:27:38;;;;;;;33.45;19.02;;;;;;;5.72;nan;101250.13;5068616;28;20047;-77
2021/10/30 06:30:08;;;;;;;32.40;18.63;;;;;;;5.78;nan;101253.00;5070144;28;20028;-77
2021/10/30 06:32:34;;;;;;;34.10;19.30;;;;;;;5.78;nan;101251.16;5085523;28;20563;-78
2021/10/30 06:34:59;;;;;;;36.63;19.15;;;;;;;5.78;nan;101247.69;5071095;28;20020;-77
2021/10/30 06:37:25;;;;;;;34.47;18.70;;;;;;;5.79;nan;101249.31;5082496;28;20372;-77
2021/10/30 06:39:50;;;;;;;31.83;18.42;;;;;;;5.84;nan;101257.50;5085249;28;20055;-77
2021/10/30 06:42:16;;;;;;;32.58;18.63;;;;;;;5.86;nan;101255.44;5087821;28;20103;-77
2021/10/30 06:44:44;;;;;;;33.90;20.13;;;;;;;5.89;nan;101245.22;5085075;28;20424;-77
2021/10/30 06:47:10;;;;;;;34.63;19.13;;;;;;;5.89;nan;101253.19;5081394;28;20046;-77
2021/10/30 06:49:35;;;;;;;34.40;20.65;;;;;;;6.00;nan;101263.25;5087537;28;20782;-77
2021/10/30 06:52:02;;;;;;;31.92;18.60;;;;;;;6.10;nan;101257.50;5088445;28;21197;-78
2021/10/30 06:54:27;;;;;;;34.03;19.58;;;;;;;6.24;nan;101263.63;5069631;28;20065;-77
2021/10/30 06:56:53;;;;;;;30.83;19.08;;;;;;;6.39;nan;101271.41;5083859;28;20126;-77
2021/10/30 06:59:18;;;;;;;35.25;18.67;;;;;;;6.56;nan;101267.28;5084371;28;20032;-77
2021/10/30 07:01:44;;;;;;;29.45;19.00;;;;;;;6.72;nan;101266.81;5083638;28;20043;-77
2021/10/30 07:04:11;;;;;;;27.55;17.83;;;;;;;6.84;nan;101264.31;5069672;28;20089;-77
2021/10/30 07:06:37;;;;;;;34.80;19.80;;;;;;;6.91;nan;101267.78;5079806;28;20032;-77
2021/10/30 07:09:03;;;;;;;29.23;17.70;;;;;;;6.93;nan;101265.72;5065514;28;20076;-77
2021/10/30 07:11:29;;;;;;;28.33;18.05;;;;;;;7.07;nan;101269.97;5064330;28;20024;-77
2021/10/30 07:13:54;;;;;;;35.17;17.75;;;;;;;7.14;nan;101272.59;5082159;28;20024;-77
2021/10/30 07:16:20;;;;;;;33.38;18.38;;;;;;;7.09;nan;101273.22;5082059;28;20062;-77
2021/10/30 07:18:46;;;;;;;28.60;17.92;;;;;;;7.01;nan;101267.34;5084611;28;20099;-76
2021/10/30 07:21:12;;;;;;;30.05;18.42;;;;;;;6.97;nan;101274.91;5083365;28;20529;-77
2021/10/30 07:23:37;;;;;;;29.05;17.95;;;;;;;7.06;nan;101271.00;5065780;28;20071;-77
2021/10/30 07:26:04;;;;;;;32.15;18.58;;;;;;;7.16;nan;101268.69;5082367;28;20043;-77
2021/10/30 07:28:30;;;;;;;27.90;17.20;;;;;;;7.30;nan;101274.75;5084299;28;20561;-77
2021/10/30 07:30:55;;;;;;;27.73;17.75;;;;;;;7.44;nan;101281.66;5064908;28;20032;-77
2021/10/30 07:33:21;;;;;;;31.48;17.75;;;;;;;7.56;nan;101285.28;5082730;28;20167;-76
2021/10/30 07:35:47;;;;;;;35.85;20.05;;;;;;;7.71;nan;101274.28;5067586;28;20028;-77
2021/10/30 07:38:12;;;;;;;28.10;17.73;;;;;;;7.86;nan;101279.31;5079784;28;20027;-76
2021/10/30 07:40:38;;;;;;;29.23;16.88;;;;;;;7.98;nan;101266.91;5065111;28;20485;-76
2021/10/30 07:43:03;;;;;;;27.17;17.88;;;;;;;8.16;nan;101279.50;5082095;28;20032;-77
2021/10/30 07:45:30;;;;;;;31.25;18.30;;;;;;;8.23;nan;101266.06;5091474;28;20032;-74
2021/10/30 07:47:57;;;;;;;28.17;17.83;;;;;;;8.40;nan;101269.84;5081128;28;20395;-74
2021/10/30 07:50:24;;;;;;;29.45;19.15;;;;;;;8.51;nan;101265.63;5080478;28;20024;-74
2021/10/30 07:52:50;;;;;;;29.58;18.35;;;;;;;8.63;nan;101264.69;5071512;28;20016;-74
2021/10/30 07:55:16;;;;;;;33.38;18.88;;;;;;;8.79;nan;101268.59;5063727;28;20036;-75
2021/10/30 07:57:41;;;;;;;33.20;19.30;;;;;;;8.88;nan;101271.78;5062830;28;20647;-74
2021/10/30 08:00:08;;;;;;;27.92;18.13;;;;;;;8.99;nan;101268.38;5067761;28;20105;-75
2021/10/30 08:02:33;;;;;;;28.85;17.35;;;;;;;9.11;nan;101273.75;5067997;28;20040;-76
2021/10/30 08:05:00;;;;;;;27.83;17.52;;;;;;;9.17;nan;101260.34;5084362;28;20024;-76
2021/10/30 08:07:26;;;;;;;28.73;18.52;;;;;;;9.24;nan;101261.03;5082762;28;20464;-76
2021/10/30 08:09:51;;;;;;;30.08;17.70;;;;;;;9.29;nan;101263.84;5066833;28;20032;-77
2021/10/30 08:12:17;;;;;;;27.02;17.30;;;;;;;9.36;nan;101261.09;5083722;28;20058;-75
2021/10/30 08:14:43;;;;;;;29.70;18.38;;;;;;;9.50;nan;101262.53;5081044;28;20094;-76
2021/10/30 08:17:09;;;;;;;27.08;17.58;;;;;;;9.62;nan;101251.84;5067047;28;20458;-79
2021/10/30 08:19:34;;;;;;;30.42;16.38;;;;;;;9.71;nan;101250.50;5086284;28;20436;-79
2021/10/30 08:22:03;;;;;;;26.05;17.02;;;;;;;9.78;nan;101261.09;5086646;28;20046;-78
2021/10/30 08:24:29;;;;;;;28.13;16.92;;;;;;;9.90;nan;101254.72;5067550;28;20497;-79
2021/10/30 08:26:54;;;;;;;26.45;17.15;;;;;;;9.93;nan;101248.09;5073077;28;20062;-79
2021/10/30 08:29:20;;;;;;;31.90;16.85;;;;;;;10.02;nan;101251.22;5087294;28;20053;-79
2021/10/30 08:31:48;;;;;;;26.30;17.45;;;;;;;10.14;nan;101244.00;5071590;28;20070;-79
2021/10/30 08:34:13;;;;;;;28.52;15.95;;;;;;;10.20;nan;101237.72;5071592;28;20481;-78
2021/10/30 08:36:39;;;;;;;23.30;16.13;;;;;;;10.30;nan;101232.63;5072710;28;20028;-78
2021/10/30 08:39:05;;;;;;;26.35;16.95;;;;;;;10.36;nan;101234.38;5066894;28;20027;-79
2021/10/30 08:41:31;;;;;;;22.70;15.88;;;;;;;10.39;nan;101231.22;5085387;28;20051;-80
2021/10/30 08:43:57;;;;;;;28.23;17.02;;;;;;;10.45;nan;101226.81;5068747;28;20020;-77
2021/10/30 08:46:23;;;;;;;24.17;16.05;;;;;;;10.59;nan;101223.63;5086296;28;20039;-78
2021/10/30 08:48:48;;;;;;;23.70;15.18;;;;;;;10.65;nan;101221.84;5067165;28;20032;-78
2021/10/30 08:51:14;;;;;;;25.15;16.38;;;;;;;10.80;nan;101210.63;5081722;28;20032;-77
2021/10/30 08:53:40;;;;;;;24.88;15.77;;;;;;;10.99;nan;101213.94;5069036;28;20486;-77
2021/10/30 08:56:07;;;;;;;23.88;15.20;;;;;;;11.15;nan;101216.69;5067316;28;20119;-77
2021/10/30 08:58:33;;;;;;;24.90;15.32;;;;;;;11.25;nan;101209.84;5067116;28;20032;-77
2021/10/30 09:01:06;;;;;;;24.75;15.43;;;;;;;11.31;nan;101212.41;5069009;28;20016;-79
2021/10/30 09:03:32;;;;;;;23.00;14.93;;;;;;;11.43;nan;101206.97;5056450;28;20033;-79
2021/10/30 09:06:00;;;;;;;21.95;15.10;;;;;;;11.44;nan;101205.91;5070003;28;20065;-78
2021/10/30 09:08:27;;;;;;;22.92;15.43;;;;;;;11.67;nan;101200.41;5067862;28;20028;-78
2021/10/30 09:11:08;;;;;;;22.50;14.32;;;;;;;11.70;nan;101202.59;5084759;28;20032;-79
2021/10/30 09:13:33;;;;;;;23.48;15.35;;;;;;;11.86;nan;101197.50;5067894;28;20047;-79
2021/10/30 09:16:00;;;;;;;26.10;16.00;;;;;;;11.97;nan;101188.53;5087081;28;20375;-80
2021/10/30 09:18:38;;;;;;;24.50;15.93;;;;;;;11.98;nan;101187.47;5083465;28;20032;-80
2021/10/30 09:21:03;;;;;;;22.35;15.07;;;;;;;12.13;nan;101182.31;5080182;28;20020;-80
2021/10/30 09:23:31;;;;;;;23.00;14.98;;;;;;;12.13;nan;101181.50;5063779;28;20035;-80
2021/10/30 09:26:20;;;;;;;28.20;15.80;;;;;;;12.13;nan;101176.13;5065419;28;20024;-79
2021/10/30 09:28:53;;;;;;;21.13;14.48;;;;;;;12.22;nan;101170.09;5077861;28;20561;-80
2021/10/30 09:31:26;;;;;;;22.75;15.00;;;;;;;12.31;nan;101171.28;5086155;28;20028;-80
2021/10/30 09:33:53;;;;;;;22.33;14.95;;;;;;;12.47;nan;101174.16;5084079;28;20078;-79
2021/10/30 09:36:21;;;;;;;23.70;14.77;;;;;;;12.60;nan;101169.22;5080818;28;20028;-79
2021/10/30 09:38:53;;;;;;;20.40;14.20;;;;;;;12.67;nan;101177.09;5064665;28;20015;-79
2021/10/30 09:41:27;;;;;;;22.83;14.88;;;;;;;12.77;nan;101173.72;5062210;28;20058;-79
2021/10/30 09:44:15;;;;;;;20.02;14.40;;;;;;;12.82;nan;101179.16;5078336;28;20638;-79
2021/10/30 09:46:44;;;;;;;23.75;14.60;;;;;;;12.86;nan;101169.50;5059410;28;20043;-79
2021/10/30 09:49:15;;;;;;;22.27;13.75;;;;;;;12.93;nan;101170.94;5067662;28;20024;-79
2021/10/30 09:51:42;;;;;;;19.02;13.23;;;;;;;13.02;nan;101165.91;5083081;28;20104;-79
2021/10/30 09:54:08;;;;;;;18.50;13.82;;;;;;;12.98;nan;101172.88;5086307;28;20020;-79
2021/10/30 09:56:47;;;;;;;24.40;14.38;;;;;;;13.02;nan;101169.41;5083259;28;20024;-79
2021/10/30 09:59:16;;;;;;;21.52;14.43;;;;;;;13.22;nan;101170.69;5066851;28;20055;-79
2021/10/30 10:01:47;;;;;;;21.92;13.98;;;;;;;13.16;nan;101164.44;5065840;28;20143;-79
2021/10/30 10:04:14;;;;;;;19.60;14.70;;;;;;;13.26;nan;101156.47;5067790;28;20575;-79
2021/10/30 10:06:44;;;;;;;17.88;12.43;;;;;;;13.14;nan;101157.69;5082760;28;20077;-79
2021/10/30 10:09:14;;;;;;;20.08;14.02;;;;;;;12.99;nan;101151.09;5066278;28;20089;-79
2021/10/30 10:11:48;;;;;;;20.63;13.88;;;;;;;13.27;nan;101147.31;5061508;28;20660;-79
2021/10/30 10:14:20;;;;;;;21.27;13.93;;;;;;;13.46;nan;101138.88;5081082;28;20048;-79
2021/10/30 10:16:48;;;;;;;18.20;11.93;;;;;;;13.57;nan;101146.78;5061856;28;20028;-79
2021/10/30 10:19:17;;;;;;;19.33;13.45;;;;;;;13.72;nan;101153.34;5063407;28;20027;-79
2021/10/30 10:21:43;;;;;;;19.23;13.30;;;;;;;13.53;nan;101144.84;5064613;28;20119;-79
2021/10/30 10:24:18;;;;;;;22.65;13.82;;;;;;;13.68;nan;101142.28;5082691;28;20108;-79
2021/10/30 10:26:49;;;;;;;20.80;14.20;;;;;;;13.86;nan;101132.97;5084910;28;20546;-79
2021/10/30 10:29:35;;;;;;;18.70;13.05;;;;;;;14.02;nan;101134.69;5059553;28;20057;-79
2021/10/30 10:32:19;;;;;;;17.83;12.80;;;;;;;14.25;nan;101121.84;5065964;28;20253;-79
2021/10/30 10:34:46;;;;;;;21.00;13.43;;;;;;;14.43;nan;101126.78;5071966;28;20031;-79
2021/10/30 10:37:11;;;;;;;19.83;13.07;;;;;;;14.61;nan;101115.53;5087182;28;20044;-80
2021/10/30 10:39:41;;;;;;;19.00;13.13;;;;;;;14.71;nan;101112.03;5066010;28;20036;-79
2021/10/30 10:42:35;;;;;;;21.63;14.52;;;;;;;14.80;nan;101111.25;5071466;28;20050;-80
2021/10/30 10:45:15;;;;;;;19.38;13.02;;;;;;;14.89;nan;101111.53;5060859;28;20689;-79
2021/10/30 10:47:43;;;;;;;21.10;13.73;;;;;;;15.01;nan;101103.19;5087172;28;20060;-79
2021/10/30 10:50:25;;;;;;;21.08;13.80;;;;;;;15.10;nan;101101.59;5068897;28;20568;-79
2021/10/30 10:53:00;;;;;;;21.05;13.80;;;;;;;15.13;nan;101092.94;5064433;28;20039;-80
2021/10/30 10:55:30;;;;;;;19.63;13.68;;;;;;;15.26;nan;101087.03;5087416;28;20657;-79
2021/10/30 10:58:04;;;;;;;19.25;13.57;;;;;;;15.34;nan;101077.56;5088011;28;20027;-79
2021/10/30 11:00:31;;;;;;;23.30;13.87;;;;;;;15.40;nan;101074.56;5062594;28;20032;-79
2021/10/30 11:02:59;;;;;;;20.77;13.00;;;;;;;15.64;nan;101064.03;5065549;28;20605;-78
2021/10/30 11:05:24;;;;;;;18.33;13.20;;;;;;;15.99;nan;101071.22;5065040;28;20035;-79
2021/10/30 11:07:50;;;;;;;21.38;15.27;;;;;;;16.87;nan;101064.25;5063671;28;20028;-79
2021/10/30 11:10:26;;;;;;;20.33;13.63;;;;;;;18.90;nan;101053.00;5087178;28;20020;-78
2021/10/30 11:12:58;;;;;;;20.85;13.57;;;;;;;21.04;nan;101042.13;5066720;28;20092;-79
2021/10/30 11:15:26;;;;;;;18.33;13.20;;;;;;;22.26;nan;101043.41;5086184;28;20027;-79
2021/10/30 11:18:04;;;;;;;16.98;12.60;;;;;;;23.25;nan;101024.41;5083582;28;20020;-79
2021/10/30 11:20:42;;;;;;;19.70;13.15;;;;;;;24.19;nan;101019.59;5069020;28;20052;-79
2021/10/30 11:23:20;;;;;;;20.30;13.93;;;;;;;24.70;nan;101015.66;5082942;28;20032;-79
2021/10/30 11:25:52;;;;;;;19.13;12.75;;;;;;;25.17;nan;101015.41;5087900;28;20027;-79
2021/10/30 11:28:22;;;;;;;17.98;13.07;;;;;;;25.37;nan;101017.25;5068329;28;20035;-79
2021/10/30 11:30:48;;;;;;;20.23;13.50;;;;;;;25.93;nan;101014.75;5069349;28;20031;-79